Weather observations for the past three days for
Pullman / Moscow Regional Airport
Metric (Imperial)
Date Time (pdt) Wind (kph) Vis. (km) Weather Sky Cond. Temperature (ºC) Relative Humidity Wind Chill (°C) Heat Index (°C) Pressure Precipitation (cm)
Air Dwpt 6 hour altimeter (cm) sea level (mb) 1 hr 3 hr 6 hr
Max. Min.
02 15:53 SE 7 16.09 Fair CLR 24.4 3.3 25% 25 76.12 1013.8
02 14:53 E 13 16.09 Fair CLR 23.9 3.3 26% 25 76.17 1014.6
02 13:53 Vrbl 7 16.09 Fair CLR 23.3 2.8 26% 76.2 1015.3
02 12:53 E 7 16.09 Fair CLR 23.3 3.3 27% 76.23 1015.5
02 11:53 E 13 16.09 Fair CLR 22.2 5.6 34% 76.25 1016.0
02 10:53 SE 17 16.09 NULL NULL 20.6 7.2 20.6 10 42% 76.28 1016.3
02 09:53 E 15 16.09 Fair CLR 18.9 5 40% 76.28 1016.4
02 08:53 E 17 16.09 Fair CLR 16.7 4.4 44% 76.3 1016.6
02 07:53 E 17 16.09 Fair CLR 15 4.4 49% 76.28 1016.2
02 06:53 E 15 16.09 Fair CLR 12.2 2.8 53% 76.25 1016.1
02 05:53 E 13 16.09 Fair CLR 10.6 2.8 59% 76.25 1015.9
02 04:53 E 15 16.09 Fair CLR 11.1 3.3 12.2 8.3 59% 76.23 1015.5
02 03:53 NE 7 16.09 Fair CLR 11.7 3.3 57% 76.23 1015.5
02 02:53 NE 6 16.09 Fair CLR 11.7 3.3 57% 76.23 1015.5
02 01:53 Calm 16.09 Fair CLR 8.3 4.4 77% 76.25 1016.0
02 00:53 Calm 16.09 Fair CLR 9.4 4.4 71% 76.25 1016.1
01 23:53 Calm 16.09 Fair CLR 10 5 71% 76.25 1016.0
01 22:53 Calm 16.09 Fair CLR 10.6 4.4 21.7 9.4 66% 76.25 1016.1
01 21:53 Calm 16.09 Fair CLR 11.7 5 64% 76.28 1016.4
01 20:53 Calm 16.09 Fair CLR 13.3 6.1 62% 76.25 1016.3
01 19:53 Calm 16.09 Fair CLR 16.1 6.7 54% 76.23 1015.7
01 18:53 N 11 16.09 Fair CLR 18.9 6.7 45% 76.23 1015.7
01 17:53 NW 7 16.09 Fair CLR 20.6 7.8 44% 76.25 1016.1
01 16:53 N 11 16.09 Fair CLR 21.7 4.4 22.8 18.9 32% 76.28 1016.3
01 15:53 NW 9 16.09 Fair CLR 21.7 5.6 35% 76.33 1016.9
01 14:53 W 17 16.09 Fair CLR 22.2 3.9 30% 76.38 1017.4
01 13:53 W 7 16.09 Fair CLR 21.7 3.3 30% 76.4 1018.3
01 12:53 SE 9 16.09 Fair CLR 21.7 3.9 31% 76.4 1018.4
01 11:53 SE 15 16.09 Fair CLR 20.6 3.9 33% 76.43 1018.9
01 10:53 E 20 16.09 Fair CLR 18.9 5 18.9 7.2 40% 76.45 1019.2
01 09:53 E 20 16.09 Fair CLR 16.7 3.9 43% 76.45 1019.4
01 08:53 E 19 16.09 Fair CLR 14.4 2.8 46% 76.48 1019.8
01 07:53 E 22 16.09 Fair CLR 12.8 1.7 47% 76.48 1019.2
01 06:53 E 13 16.09 Fair CLR 10 1.7 57% 8 76.45 1018.8
01 05:53 NE 7 16.09 Fair CLR 7.8 0.6 61% 7 76.43 1018.5
01 04:53 NE 9 16.09 Fair CLR 8.3 0.6 9.4 4.4 59% 7 76.4 1018.3
01 03:53 NE 9 16.09 Fair CLR 7.8 0 58% 6 76.43 1018.6
01 02:53 NE 11 16.09 Fair CLR 9.4 -0.6 50% 8 76.43 1018.4
01 01:53 Calm 16.09 Fair CLR 5 0.6 73% 76.43 1019.2
01 00:53 Calm 16.09 Fair CLR 5.6 0.6 71% 76.45 1019.3
30 23:53 Calm 16.09 Fair CLR 6.1 1.1 71% 76.43 1019.3
30 22:53 Calm 16.09 Fair CLR 5.6 1.1 20 5.6 73% 76.45 1019.4
30 21:53 Calm 16.09 Fair CLR 8.9 1.1 58% 76.45 1019.5
30 20:53 Calm 16.09 Fair CLR 9.4 2.2 61% 76.43 1019.3
30 19:53 Calm 16.09 Fair CLR 15 2.2 42% 76.4 1018.7
30 18:53 Vrbl 6 16.09 Fair CLR 18.3 -3.9 22% 76.43 1018.8
30 17:53 S 9 16.09 Fair CLR 19.4 -5.6 18% 76.43 1019.0
30 16:53 E 15 16.09 Fair CLR 20 -3.3 20 16.1 21% 76.45 1019.4
30 15:53 SE 6 16.09 Fair CLR 19.4 -2.2 23% 76.5 1020.0
30 14:53 SE 9 16.09 Fair CLR 19.4 -2.2 23% 76.56 1020.8
30 13:53 Vrbl 9 16.09 Fair CLR 18.9 -1.1 26% 76.58 1021.3
30 12:53 E 17 16.09 Fair CLR 18.3 1.1 32% 76.63 1021.8
30 11:53 E 15 16.09 Fair CLR 17.2 1.1 34% 76.68 1022.6
30 10:53 SE 19 16.09 Fair CLR 16.1 2.8 16.1 3.3 41% 76.71 1023.0
30 09:53 SE 19 16.09 Fair CLR 14.4 3.3 48% 76.73 1023.2
30 08:53 SE 13 16.09 Fair CLR 12.8 2.8 51% 76.73 1023.5
30 07:53 E 17 16.09 Fair CLR 10.6 3.3 61% 76.73 1023.5
30 06:53 E 11 16.09 Fair CLR 7.2 2.8 74% 5 76.73 1023.4
30 05:53 NE 6 16.09 Fair CLR 5 0.6 73% 76.71 1023.0
30 04:53 Calm 16.09 Fair CLR 3.3 0.6 6.1 2.2 83% 76.71 1023.4
30 03:53 Calm 16.09 Fair CLR 3.3 0.6 83% 76.71 1023.5
30 02:53 Calm 16.09 Fair CLR 2.8 0 82% 76.71 1023.4
30 01:53 Calm 16.09 Fair CLR 3.3 1.1 86% 76.71 1023.2
30 00:53 Calm 16.09 Fair CLR 3.9 1.7 86% 76.71 1023.3
29 23:53 Calm 16.09 Fair CLR 3.9 1.7 86% 76.71 1023.4
29 22:53 Calm 16.09 Fair CLR 5.6 2.8 16.1 5 82% 76.71 1023.2
29 21:53 Calm 16.09 Fair CLR 7.8 3.9 77% 76.71 1023.3
29 20:53 Calm 16.09 Fair CLR 8.9 4.4 74% 76.71 1023.2
29 19:53 N 9 16.09 Fair CLR 11.7 4.4 61% 76.68 1022.9
29 18:53 N 9 16.09 Mostly Cloudy BKN095 12.8 6.1 64% 76.68 1023.1
29 17:53 N 7 16.09 Overcast OVC100 16.1 3.3 43% 76.68 1023.2
29 16:53 Calm 16.09 Mostly Cloudy FEW050 SCT075 BKN090 14.4 3.9 17.2 12.8 50% 76.71 1023.5 0.03
Date Time (pdt) Wind (kph) Vis. (km) Weather Sky Cond. Air Dwpt Max. Min. Relative Humidity Wind Chill (°C) Heat Index (°C) altimeter (cm) sea level (mb) 1 hr 3 hr 6 hr
6 hour
Temperature (ºC) Pressure Precipitation (cm)